sensor_id;sensor_type;location;lat;lon;timestamp;P1;durP1;ratioP1;P2;durP2;ratioP2
79149;SDS011;68563;45.644;13.782;2024-03-25T00:02:08;2.25;;;0.90;;
79149;SDS011;68563;45.644;13.782;2024-03-25T00:04:33;2.05;;;1.00;;
79149;SDS011;68563;45.644;13.782;2024-03-25T00:06:59;1.02;;;0.75;;
79149;SDS011;68563;45.644;13.782;2024-03-25T00:09:26;1.33;;;0.80;;
79149;SDS011;68563;45.644;13.782;2024-03-25T00:11:51;1.70;;;0.65;;
79149;SDS011;68563;45.644;13.782;2024-03-25T00:14:20;1.13;;;0.60;;
79149;SDS011;68563;45.644;13.782;2024-03-25T00:16:45;1.17;;;0.60;;
79149;SDS011;68563;45.644;13.782;2024-03-25T00:19:11;0.95;;;0.50;;
79149;SDS011;68563;45.644;13.782;2024-03-25T00:21:37;0.80;;;0.60;;
79149;SDS011;68563;45.644;13.782;2024-03-25T00:24:02;1.10;;;0.50;;
79149;SDS011;68563;45.644;13.782;2024-03-25T00:26:28;1.02;;;0.60;;
79149;SDS011;68563;45.644;13.782;2024-03-25T00:28:53;0.63;;;0.50;;
79149;SDS011;68563;45.644;13.782;2024-03-25T00:31:18;1.00;;;0.55;;
79149;SDS011;68563;45.644;13.782;2024-03-25T00:33:44;1.42;;;0.60;;
79149;SDS011;68563;45.644;13.782;2024-03-25T00:36:10;1.67;;;0.70;;
79149;SDS011;68563;45.644;13.782;2024-03-25T00:38:35;1.17;;;0.70;;
79149;SDS011;68563;45.644;13.782;2024-03-25T00:41:01;1.10;;;0.63;;
79149;SDS011;68563;45.644;13.782;2024-03-25T00:43:26;1.65;;;0.43;;
79149;SDS011;68563;45.644;13.782;2024-03-25T00:45:52;1.35;;;0.70;;
79149;SDS011;68563;45.644;13.782;2024-03-25T00:48:17;1.45;;;0.60;;
79149;SDS011;68563;45.644;13.782;2024-03-25T00:50:43;1.10;;;0.60;;
79149;SDS011;68563;45.644;13.782;2024-03-25T00:53:08;0.77;;;0.50;;
79149;SDS011;68563;45.644;13.782;2024-03-25T00:55:33;0.75;;;0.50;;
79149;SDS011;68563;45.644;13.782;2024-03-25T00:58:01;1.15;;;0.47;;
79149;SDS011;68563;45.644;13.782;2024-03-25T01:00:27;0.50;;;0.40;;
79149;SDS011;68563;45.644;13.782;2024-03-25T01:02:52;2.00;;;0.60;;
79149;SDS011;68563;45.644;13.782;2024-03-25T01:05:17;2.42;;;0.77;;
79149;SDS011;68563;45.644;13.782;2024-03-25T01:07:43;1.40;;;0.70;;
79149;SDS011;68563;45.644;13.782;2024-03-25T01:10:09;0.88;;;0.50;;
79149;SDS011;68563;45.644;13.782;2024-03-25T01:12:34;1.67;;;0.52;;
79149;SDS011;68563;45.644;13.782;2024-03-25T01:15:00;0.70;;;0.50;;
79149;SDS011;68563;45.644;13.782;2024-03-25T01:17:27;1.52;;;0.70;;
79149;SDS011;68563;45.644;13.782;2024-03-25T01:19:52;0.70;;;0.40;;
79149;SDS011;68563;45.644;13.782;2024-03-25T01:22:18;3.85;;;0.68;;
79149;SDS011;68563;45.644;13.782;2024-03-25T01:24:43;1.48;;;0.60;;
79149;SDS011;68563;45.644;13.782;2024-03-25T01:27:09;1.33;;;0.60;;
79149;SDS011;68563;45.644;13.782;2024-03-25T01:29:34;2.35;;;0.60;;
79149;SDS011;68563;45.644;13.782;2024-03-25T01:31:59;1.10;;;0.65;;
79149;SDS011;68563;45.644;13.782;2024-03-25T01:34:25;0.80;;;0.50;;
79149;SDS011;68563;45.644;13.782;2024-03-25T01:36:51;1.05;;;0.60;;
79149;SDS011;68563;45.644;13.782;2024-03-25T01:39:17;1.08;;;0.70;;
79149;SDS011;68563;45.644;13.782;2024-03-25T01:41:43;1.67;;;0.70;;
79149;SDS011;68563;45.644;13.782;2024-03-25T01:44:08;0.80;;;0.60;;
79149;SDS011;68563;45.644;13.782;2024-03-25T01:46:34;1.30;;;0.80;;
79149;SDS011;68563;45.644;13.782;2024-03-25T01:49:00;1.58;;;0.63;;
79149;SDS011;68563;45.644;13.782;2024-03-25T01:51:26;1.67;;;0.60;;
79149;SDS011;68563;45.644;13.782;2024-03-25T01:53:52;1.10;;;0.70;;
79149;SDS011;68563;45.644;13.782;2024-03-25T01:56:20;1.48;;;0.70;;
79149;SDS011;68563;45.644;13.782;2024-03-25T01:58:47;1.02;;;0.60;;
79149;SDS011;68563;45.644;13.782;2024-03-25T02:01:13;1.17;;;0.70;;
79149;SDS011;68563;45.644;13.782;2024-03-25T02:03:40;1.50;;;0.70;;
79149;SDS011;68563;45.644;13.782;2024-03-25T02:06:09;3.50;;;0.70;;
79149;SDS011;68563;45.644;13.782;2024-03-25T02:08:38;1.67;;;0.60;;
79149;SDS011;68563;45.644;13.782;2024-03-25T02:11:05;1.95;;;0.50;;
79149;SDS011;68563;45.644;13.782;2024-03-25T02:13:31;1.02;;;0.60;;
79149;SDS011;68563;45.644;13.782;2024-03-25T02:15:57;0.63;;;0.40;;
79149;SDS011;68563;45.644;13.782;2024-03-25T02:18:22;0.57;;;0.40;;
79149;SDS011;68563;45.644;13.782;2024-03-25T02:20:48;0.88;;;0.60;;
79149;SDS011;68563;45.644;13.782;2024-03-25T02:23:14;2.10;;;0.50;;
79149;SDS011;68563;45.644;13.782;2024-03-25T02:25:40;0.90;;;0.60;;
79149;SDS011;68563;45.644;13.782;2024-03-25T02:28:07;1.58;;;0.50;;
79149;SDS011;68563;45.644;13.782;2024-03-25T02:30:33;1.17;;;0.70;;
79149;SDS011;68563;45.644;13.782;2024-03-25T02:32:58;0.90;;;0.57;;
79149;SDS011;68563;45.644;13.782;2024-03-25T02:35:24;1.58;;;0.57;;
79149;SDS011;68563;45.644;13.782;2024-03-25T02:37:51;1.13;;;0.63;;
79149;SDS011;68563;45.644;13.782;2024-03-25T02:40:18;0.90;;;0.55;;
79149;SDS011;68563;45.644;13.782;2024-03-25T02:42:44;0.80;;;0.50;;
79149;SDS011;68563;45.644;13.782;2024-03-25T02:45:10;0.80;;;0.50;;
79149;SDS011;68563;45.644;13.782;2024-03-25T02:47:36;1.23;;;0.55;;
79149;SDS011;68563;45.644;13.782;2024-03-25T02:50:01;2.03;;;0.52;;
79149;SDS011;68563;45.644;13.782;2024-03-25T02:52:27;0.98;;;0.50;;
79149;SDS011;68563;45.644;13.782;2024-03-25T02:54:52;1.02;;;0.60;;
79149;SDS011;68563;45.644;13.782;2024-03-25T02:57:19;1.13;;;0.45;;
79149;SDS011;68563;45.644;13.782;2024-03-25T02:59:44;1.27;;;0.63;;
79149;SDS011;68563;45.644;13.782;2024-03-25T03:02:10;1.40;;;0.63;;
79149;SDS011;68563;45.644;13.782;2024-03-25T03:04:35;0.80;;;0.40;;
79149;SDS011;68563;45.644;13.782;2024-03-25T03:07:01;2.53;;;0.60;;
79149;SDS011;68563;45.644;13.782;2024-03-25T03:09:26;1.05;;;0.50;;
79149;SDS011;68563;45.644;13.782;2024-03-25T03:11:51;1.00;;;0.57;;
79149;SDS011;68563;45.644;13.782;2024-03-25T03:14:17;1.42;;;0.35;;
79149;SDS011;68563;45.644;13.782;2024-03-25T03:16:42;0.50;;;0.35;;
79149;SDS011;68563;45.644;13.782;2024-03-25T03:19:08;1.20;;;0.57;;
79149;SDS011;68563;45.644;13.782;2024-03-25T03:21:33;1.02;;;0.50;;
79149;SDS011;68563;45.644;13.782;2024-03-25T03:23:58;1.15;;;0.50;;
79149;SDS011;68563;45.644;13.782;2024-03-25T03:26:24;0.75;;;0.40;;
79149;SDS011;68563;45.644;13.782;2024-03-25T03:28:52;0.63;;;0.50;;
79149;SDS011;68563;45.644;13.782;2024-03-25T03:31:21;1.55;;;0.50;;
79149;SDS011;68563;45.644;13.782;2024-03-25T03:33:46;0.80;;;0.45;;
79149;SDS011;68563;45.644;13.782;2024-03-25T03:36:13;0.95;;;0.43;;
79149;SDS011;68563;45.644;13.782;2024-03-25T03:38:40;1.10;;;0.50;;
79149;SDS011;68563;45.644;13.782;2024-03-25T03:41:06;0.45;;;0.30;;
79149;SDS011;68563;45.644;13.782;2024-03-25T03:43:31;1.05;;;0.60;;
79149;SDS011;68563;45.644;13.782;2024-03-25T03:45:57;1.85;;;0.70;;
79149;SDS011;68563;45.644;13.782;2024-03-25T03:48:22;0.65;;;0.50;;
79149;SDS011;68563;45.644;13.782;2024-03-25T03:50:48;0.88;;;0.40;;
79149;SDS011;68563;45.644;13.782;2024-03-25T03:53:13;1.50;;;0.43;;
79149;SDS011;68563;45.644;13.782;2024-03-25T03:55:38;0.80;;;0.50;;
79149;SDS011;68563;45.644;13.782;2024-03-25T03:58:04;1.40;;;0.50;;
79149;SDS011;68563;45.644;13.782;2024-03-25T04:00:32;0.75;;;0.50;;
79149;SDS011;68563;45.644;13.782;2024-03-25T04:02:59;1.02;;;0.50;;
79149;SDS011;68563;45.644;13.782;2024-03-25T04:05:28;0.50;;;0.40;;
79149;SDS011;68563;45.644;13.782;2024-03-25T04:07:54;1.42;;;0.40;;
79149;SDS011;68563;45.644;13.782;2024-03-25T04:10:19;0.32;;;0.30;;
79149;SDS011;68563;45.644;13.782;2024-03-25T04:12:45;0.98;;;0.43;;
79149;SDS011;68563;45.644;13.782;2024-03-25T04:15:11;0.82;;;0.50;;
79149;SDS011;68563;45.644;13.782;2024-03-25T04:17:42;0.88;;;0.57;;
79149;SDS011;68563;45.644;13.782;2024-03-25T04:20:12;1.00;;;0.40;;
79149;SDS011;68563;45.644;13.782;2024-03-25T04:22:44;0.82;;;0.50;;
79149;SDS011;68563;45.644;13.782;2024-03-25T04:25:10;1.05;;;0.60;;
79149;SDS011;68563;45.644;13.782;2024-03-25T04:27:43;1.20;;;0.45;;
79149;SDS011;68563;45.644;13.782;2024-03-25T04:30:09;1.80;;;0.80;;
79149;SDS011;68563;45.644;13.782;2024-03-25T04:32:36;1.42;;;0.80;;
79149;SDS011;68563;45.644;13.782;2024-03-25T04:35:03;0.70;;;0.57;;
79149;SDS011;68563;45.644;13.782;2024-03-25T04:37:29;2.08;;;0.60;;
79149;SDS011;68563;45.644;13.782;2024-03-25T04:39:55;2.08;;;0.70;;
79149;SDS011;68563;45.644;13.782;2024-03-25T04:42:21;1.42;;;0.55;;
79149;SDS011;68563;45.644;13.782;2024-03-25T04:44:48;1.08;;;0.68;;
79149;SDS011;68563;45.644;13.782;2024-03-25T04:47:13;1.27;;;0.80;;
79149;SDS011;68563;45.644;13.782;2024-03-25T04:49:40;1.55;;;0.70;;
79149;SDS011;68563;45.644;13.782;2024-03-25T04:52:06;2.47;;;0.75;;
79149;SDS011;68563;45.644;13.782;2024-03-25T04:54:31;1.85;;;0.70;;
79149;SDS011;68563;45.644;13.782;2024-03-25T04:56:57;1.40;;;0.60;;
79149;SDS011;68563;45.644;13.782;2024-03-25T04:59:22;1.67;;;0.90;;
79149;SDS011;68563;45.644;13.782;2024-03-25T05:01:48;1.70;;;0.88;;
79149;SDS011;68563;45.644;13.782;2024-03-25T05:04:13;2.78;;;0.75;;
79149;SDS011;68563;45.644;13.782;2024-03-25T05:06:39;0.77;;;0.60;;
79149;SDS011;68563;45.644;13.782;2024-03-25T05:09:04;1.10;;;0.65;;
79149;SDS011;68563;45.644;13.782;2024-03-25T05:11:31;1.20;;;0.80;;
79149;SDS011;68563;45.644;13.782;2024-03-25T05:13:57;1.00;;;0.60;;
79149;SDS011;68563;45.644;13.782;2024-03-25T05:16:22;2.25;;;0.90;;
79149;SDS011;68563;45.644;13.782;2024-03-25T05:18:48;2.80;;;0.85;;
79149;SDS011;68563;45.644;13.782;2024-03-25T05:21:13;2.08;;;0.82;;
79149;SDS011;68563;45.644;13.782;2024-03-25T05:23:39;1.77;;;0.70;;
79149;SDS011;68563;45.644;13.782;2024-03-25T05:26:04;1.63;;;1.00;;
79149;SDS011;68563;45.644;13.782;2024-03-25T05:28:30;2.65;;;0.90;;
79149;SDS011;68563;45.644;13.782;2024-03-25T05:30:55;3.05;;;0.93;;
79149;SDS011;68563;45.644;13.782;2024-03-25T05:33:21;2.45;;;0.90;;
79149;SDS011;68563;45.644;13.782;2024-03-25T05:35:46;2.13;;;1.02;;
79149;SDS011;68563;45.644;13.782;2024-03-25T05:38:12;2.50;;;1.10;;
79149;SDS011;68563;45.644;13.782;2024-03-25T05:40:37;2.40;;;1.00;;
79149;SDS011;68563;45.644;13.782;2024-03-25T05:43:02;4.90;;;1.00;;
79149;SDS011;68563;45.644;13.782;2024-03-25T05:45:28;2.47;;;0.90;;
79149;SDS011;68563;45.644;13.782;2024-03-25T05:47:53;1.10;;;0.73;;
79149;SDS011;68563;45.644;13.782;2024-03-25T05:50:18;1.42;;;0.70;;
79149;SDS011;68563;45.644;13.782;2024-03-25T05:52:44;2.80;;;1.00;;
79149;SDS011;68563;45.644;13.782;2024-03-25T05:55:09;4.90;;;0.85;;
79149;SDS011;68563;45.644;13.782;2024-03-25T05:57:35;1.73;;;0.98;;
79149;SDS011;68563;45.644;13.782;2024-03-25T06:00:01;2.35;;;0.93;;
79149;SDS011;68563;45.644;13.782;2024-03-25T06:02:28;3.33;;;0.98;;
79149;SDS011;68563;45.644;13.782;2024-03-25T06:04:53;1.65;;;0.85;;
79149;SDS011;68563;45.644;13.782;2024-03-25T06:07:18;1.17;;;0.80;;
79149;SDS011;68563;45.644;13.782;2024-03-25T06:09:44;1.33;;;0.98;;
79149;SDS011;68563;45.644;13.782;2024-03-25T06:12:09;3.17;;;0.80;;
79149;SDS011;68563;45.644;13.782;2024-03-25T06:14:35;2.08;;;0.93;;
79149;SDS011;68563;45.644;13.782;2024-03-25T06:17:00;1.50;;;0.85;;
79149;SDS011;68563;45.644;13.782;2024-03-25T06:19:26;1.98;;;1.00;;
79149;SDS011;68563;45.644;13.782;2024-03-25T06:21:51;2.00;;;1.10;;
79149;SDS011;68563;45.644;13.782;2024-03-25T06:24:16;2.10;;;1.00;;
79149;SDS011;68563;45.644;13.782;2024-03-25T06:26:42;12.10;;;2.22;;
79149;SDS011;68563;45.644;13.782;2024-03-25T06:29:07;3.78;;;1.10;;
79149;SDS011;68563;45.644;13.782;2024-03-25T06:31:32;3.10;;;1.30;;
79149;SDS011;68563;45.644;13.782;2024-03-25T06:34:16;1.67;;;0.80;;
79149;SDS011;68563;45.644;13.782;2024-03-25T06:36:49;1.00;;;0.70;;
79149;SDS011;68563;45.644;13.782;2024-03-25T06:39:14;1.40;;;0.80;;
79149;SDS011;68563;45.644;13.782;2024-03-25T06:41:40;1.65;;;0.80;;
79149;SDS011;68563;45.644;13.782;2024-03-25T06:44:06;2.97;;;0.90;;
79149;SDS011;68563;45.644;13.782;2024-03-25T06:46:32;1.98;;;0.90;;
79149;SDS011;68563;45.644;13.782;2024-03-25T06:48:58;1.58;;;1.00;;
79149;SDS011;68563;45.644;13.782;2024-03-25T06:51:23;1.23;;;0.75;;
79149;SDS011;68563;45.644;13.782;2024-03-25T06:53:49;1.30;;;0.80;;
79149;SDS011;68563;45.644;13.782;2024-03-25T06:56:14;3.47;;;0.98;;
79149;SDS011;68563;45.644;13.782;2024-03-25T06:58:40;1.90;;;0.95;;
79149;SDS011;68563;45.644;13.782;2024-03-25T07:01:07;5.70;;;1.23;;
79149;SDS011;68563;45.644;13.782;2024-03-25T07:03:33;10.02;;;1.63;;
79149;SDS011;68563;45.644;13.782;2024-03-25T07:05:59;4.18;;;1.58;;
79149;SDS011;68563;45.644;13.782;2024-03-25T07:08:25;4.78;;;2.08;;
79149;SDS011;68563;45.644;13.782;2024-03-25T07:10:55;3.40;;;1.85;;
79149;SDS011;68563;45.644;13.782;2024-03-25T07:13:20;3.58;;;2.17;;
79149;SDS011;68563;45.644;13.782;2024-03-25T07:15:46;3.75;;;1.90;;
79149;SDS011;68563;45.644;13.782;2024-03-25T07:18:11;3.42;;;1.90;;
79149;SDS011;68563;45.644;13.782;2024-03-25T07:20:38;3.63;;;1.38;;
79149;SDS011;68563;45.644;13.782;2024-03-25T07:23:04;1.67;;;1.00;;
79149;SDS011;68563;45.644;13.782;2024-03-25T07:25:30;4.25;;;1.10;;
79149;SDS011;68563;45.644;13.782;2024-03-25T07:27:55;3.05;;;1.00;;
79149;SDS011;68563;45.644;13.782;2024-03-25T07:30:21;3.08;;;0.73;;
79149;SDS011;68563;45.644;13.782;2024-03-25T07:32:53;1.58;;;0.90;;
79149;SDS011;68563;45.644;13.782;2024-03-25T07:35:22;1.73;;;1.00;;
79149;SDS011;68563;45.644;13.782;2024-03-25T07:37:48;1.95;;;0.95;;
79149;SDS011;68563;45.644;13.782;2024-03-25T07:40:19;4.60;;;1.10;;
79149;SDS011;68563;45.644;13.782;2024-03-25T07:42:46;1.20;;;0.80;;
79149;SDS011;68563;45.644;13.782;2024-03-25T07:45:11;1.08;;;0.70;;
79149;SDS011;68563;45.644;13.782;2024-03-25T07:47:37;1.92;;;0.60;;
79149;SDS011;68563;45.644;13.782;2024-03-25T07:50:02;1.45;;;0.60;;
79149;SDS011;68563;45.644;13.782;2024-03-25T07:52:28;1.55;;;0.60;;
79149;SDS011;68563;45.644;13.782;2024-03-25T07:54:54;4.20;;;0.70;;
79149;SDS011;68563;45.644;13.782;2024-03-25T07:57:21;1.58;;;0.68;;
79149;SDS011;68563;45.644;13.782;2024-03-25T07:59:46;1.70;;;0.88;;
79149;SDS011;68563;45.644;13.782;2024-03-25T08:02:12;1.20;;;0.52;;
79149;SDS011;68563;45.644;13.782;2024-03-25T08:04:37;2.83;;;0.50;;
79149;SDS011;68563;45.644;13.782;2024-03-25T08:07:03;1.15;;;0.65;;
79149;SDS011;68563;45.644;13.782;2024-03-25T08:09:28;2.20;;;0.50;;
79149;SDS011;68563;45.644;13.782;2024-03-25T08:11:54;1.35;;;0.70;;
79149;SDS011;68563;45.644;13.782;2024-03-25T08:14:19;1.85;;;0.70;;
79149;SDS011;68563;45.644;13.782;2024-03-25T08:16:45;1.77;;;0.80;;
79149;SDS011;68563;45.644;13.782;2024-03-25T08:19:10;1.50;;;0.88;;
79149;SDS011;68563;45.644;13.782;2024-03-25T08:21:36;1.77;;;0.63;;
79149;SDS011;68563;45.644;13.782;2024-03-25T08:24:01;3.20;;;0.77;;
79149;SDS011;68563;45.644;13.782;2024-03-25T08:26:26;4.25;;;0.90;;
79149;SDS011;68563;45.644;13.782;2024-03-25T08:28:52;3.22;;;1.20;;
79149;SDS011;68563;45.644;13.782;2024-03-25T08:31:26;3.58;;;1.30;;
79149;SDS011;68563;45.644;13.782;2024-03-25T08:33:52;2.67;;;1.00;;
79149;SDS011;68563;45.644;13.782;2024-03-25T08:36:17;6.32;;;1.77;;
79149;SDS011;68563;45.644;13.782;2024-03-25T08:38:44;2.72;;;0.90;;
79149;SDS011;68563;45.644;13.782;2024-03-25T08:41:09;5.90;;;0.85;;
79149;SDS011;68563;45.644;13.782;2024-03-25T08:43:35;4.80;;;0.95;;
79149;SDS011;68563;45.644;13.782;2024-03-25T08:46:00;2.33;;;0.80;;
79149;SDS011;68563;45.644;13.782;2024-03-25T08:48:26;2.00;;;0.80;;
79149;SDS011;68563;45.644;13.782;2024-03-25T08:50:51;3.47;;;1.10;;
79149;SDS011;68563;45.644;13.782;2024-03-25T08:53:17;4.05;;;1.05;;
79149;SDS011;68563;45.644;13.782;2024-03-25T08:55:45;3.55;;;1.15;;
79149;SDS011;68563;45.644;13.782;2024-03-25T08:58:12;2.97;;;1.10;;
79149;SDS011;68563;45.644;13.782;2024-03-25T09:00:38;2.30;;;1.00;;
79149;SDS011;68563;45.644;13.782;2024-03-25T09:03:03;3.22;;;1.00;;
79149;SDS011;68563;45.644;13.782;2024-03-25T09:05:29;2.30;;;0.90;;
79149;SDS011;68563;45.644;13.782;2024-03-25T09:07:55;4.60;;;0.88;;
79149;SDS011;68563;45.644;13.782;2024-03-25T09:10:20;1.58;;;0.85;;
79149;SDS011;68563;45.644;13.782;2024-03-25T09:13:04;3.10;;;0.90;;
79149;SDS011;68563;45.644;13.782;2024-03-25T09:15:30;3.60;;;0.90;;
79149;SDS011;68563;45.644;13.782;2024-03-25T09:17:55;2.33;;;0.90;;
79149;SDS011;68563;45.644;13.782;2024-03-25T09:20:21;1.55;;;0.70;;
79149;SDS011;68563;45.644;13.782;2024-03-25T09:22:47;2.20;;;0.85;;
79149;SDS011;68563;45.644;13.782;2024-03-25T09:25:15;2.80;;;0.70;;
79149;SDS011;68563;45.644;13.782;2024-03-25T09:27:41;1.27;;;0.73;;
79149;SDS011;68563;45.644;13.782;2024-03-25T09:30:10;2.42;;;1.00;;
79149;SDS011;68563;45.644;13.782;2024-03-25T09:32:35;2.33;;;0.70;;
79149;SDS011;68563;45.644;13.782;2024-03-25T09:35:02;1.45;;;0.75;;
79149;SDS011;68563;45.644;13.782;2024-03-25T09:37:28;3.67;;;0.90;;
79149;SDS011;68563;45.644;13.782;2024-03-25T09:39:54;1.70;;;0.70;;
79149;SDS011;68563;45.644;13.782;2024-03-25T09:42:23;1.58;;;1.00;;
79149;SDS011;68563;45.644;13.782;2024-03-25T09:44:53;1.50;;;0.85;;
79149;SDS011;68563;45.644;13.782;2024-03-25T09:47:19;1.15;;;0.70;;
79149;SDS011;68563;45.644;13.782;2024-03-25T09:49:45;2.58;;;0.85;;
79149;SDS011;68563;45.644;13.782;2024-03-25T09:52:11;1.67;;;0.70;;
79149;SDS011;68563;45.644;13.782;2024-03-25T09:54:37;1.05;;;0.50;;
79149;SDS011;68563;45.644;13.782;2024-03-25T09:57:02;0.93;;;0.70;;
79149;SDS011;68563;45.644;13.782;2024-03-25T09:59:29;1.55;;;0.90;;
79149;SDS011;68563;45.644;13.782;2024-03-25T10:01:54;3.13;;;0.85;;
79149;SDS011;68563;45.644;13.782;2024-03-25T10:04:20;0.95;;;0.65;;
79149;SDS011;68563;45.644;13.782;2024-03-25T10:06:45;6.57;;;0.85;;
79149;SDS011;68563;45.644;13.782;2024-03-25T10:09:10;2.38;;;0.98;;
79149;SDS011;68563;45.644;13.782;2024-03-25T10:11:36;1.33;;;0.50;;
79149;SDS011;68563;45.644;13.782;2024-03-25T10:14:01;0.95;;;0.50;;
79149;SDS011;68563;45.644;13.782;2024-03-25T10:16:27;2.58;;;1.00;;
79149;SDS011;68563;45.644;13.782;2024-03-25T10:18:53;2.60;;;0.90;;
79149;SDS011;68563;45.644;13.782;2024-03-25T10:21:19;2.08;;;0.80;;
79149;SDS011;68563;45.644;13.782;2024-03-25T10:23:45;0.70;;;0.50;;
79149;SDS011;68563;45.644;13.782;2024-03-25T10:26:24;0.93;;;0.60;;
79149;SDS011;68563;45.644;13.782;2024-03-25T10:28:58;2.30;;;1.38;;
79149;SDS011;68563;45.644;13.782;2024-03-25T10:31:28;4.05;;;1.58;;
79149;SDS011;68563;45.644;13.782;2024-03-25T10:33:53;2.95;;;0.93;;
79149;SDS011;68563;45.644;13.782;2024-03-25T10:36:19;2.97;;;0.93;;
79149;SDS011;68563;45.644;13.782;2024-03-25T10:38:46;1.63;;;0.70;;
79149;SDS011;68563;45.644;13.782;2024-03-25T10:41:16;1.02;;;0.73;;
79149;SDS011;68563;45.644;13.782;2024-03-25T10:43:46;0.70;;;0.52;;
79149;SDS011;68563;45.644;13.782;2024-03-25T10:46:16;1.35;;;0.75;;
79149;SDS011;68563;45.644;13.782;2024-03-25T10:48:44;1.23;;;0.88;;
79149;SDS011;68563;45.644;13.782;2024-03-25T10:51:17;1.77;;;1.00;;
79149;SDS011;68563;45.644;13.782;2024-03-25T10:53:46;2.20;;;0.73;;
79149;SDS011;68563;45.644;13.782;2024-03-25T10:56:17;1.25;;;0.73;;
79149;SDS011;68563;45.644;13.782;2024-03-25T10:58:45;1.60;;;1.00;;
79149;SDS011;68563;45.644;13.782;2024-03-25T11:01:13;1.00;;;0.80;;
79149;SDS011;68563;45.644;13.782;2024-03-25T11:03:41;1.15;;;0.75;;
79149;SDS011;68563;45.644;13.782;2024-03-25T11:06:07;0.90;;;0.70;;
79149;SDS011;68563;45.644;13.782;2024-03-25T11:08:33;2.08;;;0.68;;
79149;SDS011;68563;45.644;13.782;2024-03-25T11:10:59;0.90;;;0.50;;
79149;SDS011;68563;45.644;13.782;2024-03-25T11:13:26;1.23;;;0.63;;
79149;SDS011;68563;45.644;13.782;2024-03-25T11:15:52;1.10;;;0.60;;
79149;SDS011;68563;45.644;13.782;2024-03-25T11:18:18;0.95;;;0.57;;
79149;SDS011;68563;45.644;13.782;2024-03-25T11:20:59;1.83;;;1.00;;
79149;SDS011;68563;45.644;13.782;2024-03-25T11:23:38;1.42;;;0.80;;
79149;SDS011;68563;45.644;13.782;2024-03-25T11:26:16;2.30;;;0.70;;
79149;SDS011;68563;45.644;13.782;2024-03-25T11:28:43;1.30;;;0.75;;
79149;SDS011;68563;45.644;13.782;2024-03-25T11:31:08;1.10;;;0.60;;
79149;SDS011;68563;45.644;13.782;2024-03-25T11:33:36;1.75;;;0.60;;
79149;SDS011;68563;45.644;13.782;2024-03-25T11:36:05;0.73;;;0.47;;
79149;SDS011;68563;45.644;13.782;2024-03-25T11:38:31;1.00;;;0.70;;
79149;SDS011;68563;45.644;13.782;2024-03-25T11:40:56;1.05;;;0.73;;
79149;SDS011;68563;45.644;13.782;2024-03-25T11:43:22;1.58;;;0.90;;
79149;SDS011;68563;45.644;13.782;2024-03-25T11:45:48;1.63;;;0.85;;
79149;SDS011;68563;45.644;13.782;2024-03-25T11:48:17;0.80;;;0.60;;
79149;SDS011;68563;45.644;13.782;2024-03-25T11:50:46;3.60;;;0.70;;
79149;SDS011;68563;45.644;13.782;2024-03-25T11:53:12;1.63;;;0.80;;
79149;SDS011;68563;45.644;13.782;2024-03-25T11:55:40;1.42;;;0.80;;
79149;SDS011;68563;45.644;13.782;2024-03-25T11:58:06;1.48;;;0.75;;
79149;SDS011;68563;45.644;13.782;2024-03-25T12:00:32;2.20;;;1.23;;
79149;SDS011;68563;45.644;13.782;2024-03-25T12:02:58;2.80;;;1.33;;
79149;SDS011;68563;45.644;13.782;2024-03-25T12:05:24;1.60;;;1.00;;
79149;SDS011;68563;45.644;13.782;2024-03-25T12:07:49;2.85;;;1.00;;
79149;SDS011;68563;45.644;13.782;2024-03-25T12:10:15;1.88;;;1.05;;
79149;SDS011;68563;45.644;13.782;2024-03-25T12:13:00;1.90;;;0.93;;
79149;SDS011;68563;45.644;13.782;2024-03-25T12:15:25;1.77;;;1.00;;
79149;SDS011;68563;45.644;13.782;2024-03-25T12:17:51;2.67;;;1.20;;
79149;SDS011;68563;45.644;13.782;2024-03-25T12:20:17;2.08;;;1.30;;
79149;SDS011;68563;45.644;13.782;2024-03-25T12:22:43;2.08;;;1.25;;
79149;SDS011;68563;45.644;13.782;2024-03-25T12:25:09;2.42;;;1.17;;
79149;SDS011;68563;45.644;13.782;2024-03-25T12:27:36;2.95;;;1.30;;
79149;SDS011;68563;45.644;13.782;2024-03-25T12:30:06;1.75;;;1.35;;
79149;SDS011;68563;45.644;13.782;2024-03-25T12:32:36;2.72;;;1.23;;
79149;SDS011;68563;45.644;13.782;2024-03-25T12:35:15;1.92;;;1.30;;
79149;SDS011;68563;45.644;13.782;2024-03-25T12:37:42;2.05;;;1.20;;
79149;SDS011;68563;45.644;13.782;2024-03-25T12:40:10;1.80;;;1.00;;
79149;SDS011;68563;45.644;13.782;2024-03-25T12:42:37;2.00;;;1.17;;
79149;SDS011;68563;45.644;13.782;2024-03-25T12:45:04;3.67;;;1.10;;
79149;SDS011;68563;45.644;13.782;2024-03-25T12:47:30;2.88;;;1.30;;
79149;SDS011;68563;45.644;13.782;2024-03-25T12:49:56;1.67;;;1.00;;
79149;SDS011;68563;45.644;13.782;2024-03-25T12:52:22;2.45;;;1.20;;
79149;SDS011;68563;45.644;13.782;2024-03-25T12:54:47;3.20;;;1.27;;
79149;SDS011;68563;45.644;13.782;2024-03-25T12:57:13;2.00;;;1.08;;
79149;SDS011;68563;45.644;13.782;2024-03-25T12:59:38;2.13;;;1.00;;
79149;SDS011;68563;45.644;13.782;2024-03-25T13:02:04;2.80;;;1.13;;
79149;SDS011;68563;45.644;13.782;2024-03-25T13:04:30;4.43;;;1.23;;
79149;SDS011;68563;45.644;13.782;2024-03-25T13:06:55;3.63;;;1.23;;
79149;SDS011;68563;45.644;13.782;2024-03-25T13:09:20;2.08;;;1.05;;
79149;SDS011;68563;45.644;13.782;2024-03-25T13:11:46;2.97;;;1.20;;
79149;SDS011;68563;45.644;13.782;2024-03-25T13:14:12;3.80;;;1.15;;
79149;SDS011;68563;45.644;13.782;2024-03-25T13:16:40;3.08;;;1.77;;
79149;SDS011;68563;45.644;13.782;2024-03-25T13:19:06;2.63;;;1.48;;
79149;SDS011;68563;45.644;13.782;2024-03-25T13:21:31;2.30;;;1.10;;
79149;SDS011;68563;45.644;13.782;2024-03-25T13:23:57;2.83;;;1.02;;
79149;SDS011;68563;45.644;13.782;2024-03-25T13:26:23;3.08;;;1.00;;
79149;SDS011;68563;45.644;13.782;2024-03-25T13:28:48;1.95;;;1.27;;
79149;SDS011;68563;45.644;13.782;2024-03-25T13:31:14;2.40;;;1.33;;
79149;SDS011;68563;45.644;13.782;2024-03-25T13:33:40;2.67;;;1.20;;
79149;SDS011;68563;45.644;13.782;2024-03-25T13:36:06;1.48;;;1.20;;
79149;SDS011;68563;45.644;13.782;2024-03-25T13:38:32;1.40;;;1.20;;
79149;SDS011;68563;45.644;13.782;2024-03-25T13:40:58;1.88;;;1.48;;
79149;SDS011;68563;45.644;13.782;2024-03-25T13:45:53;2.53;;;1.60;;
79149;SDS011;68563;45.644;13.782;2024-03-25T13:48:18;2.53;;;1.60;;
79149;SDS011;68563;45.644;13.782;2024-03-25T13:50:44;3.13;;;1.80;;
79149;SDS011;68563;45.644;13.782;2024-03-25T13:53:09;4.30;;;1.52;;
79149;SDS011;68563;45.644;13.782;2024-03-25T13:55:35;3.28;;;1.30;;
79149;SDS011;68563;45.644;13.782;2024-03-25T13:58:00;2.97;;;1.48;;
79149;SDS011;68563;45.644;13.782;2024-03-25T14:00:26;2.80;;;1.60;;
79149;SDS011;68563;45.644;13.782;2024-03-25T14:02:53;2.65;;;1.30;;
79149;SDS011;68563;45.644;13.782;2024-03-25T14:05:19;2.92;;;1.75;;
79149;SDS011;68563;45.644;13.782;2024-03-25T14:07:45;2.30;;;1.60;;
79149;SDS011;68563;45.644;13.782;2024-03-25T14:10:11;2.60;;;1.60;;
79149;SDS011;68563;45.644;13.782;2024-03-25T14:12:37;3.13;;;1.45;;
79149;SDS011;68563;45.644;13.782;2024-03-25T14:15:03;3.95;;;1.65;;
79149;SDS011;68563;45.644;13.782;2024-03-25T14:17:29;5.60;;;1.85;;
79149;SDS011;68563;45.644;13.782;2024-03-25T14:19:55;4.28;;;1.60;;
79149;SDS011;68563;45.644;13.782;2024-03-25T14:22:21;3.08;;;1.70;;
79149;SDS011;68563;45.644;13.782;2024-03-25T14:24:46;4.45;;;1.98;;
79149;SDS011;68563;45.644;13.782;2024-03-25T14:27:12;9.10;;;1.90;;
79149;SDS011;68563;45.644;13.782;2024-03-25T14:29:38;4.38;;;1.70;;
79149;SDS011;68563;45.644;13.782;2024-03-25T14:32:03;4.28;;;1.48;;